Time;durP1;ratioP1;P1;durP2;ratioP2;P2;SDS_P1;SDS_P2;PMS_P1;PMS_P2;Temp;Humidity;BMP_temperature;BMP_pressure;BME280_temperature;BME280_humidity;BME280_pressure;Samples;Min_cycle;Max_cycle;Signal;HPM_P1;HPM_P2
2022/11/11 00:02:14;;;;;;;0.00;0.00;;;;;;;9.32;88.96;101595.28;5034017;28;20204;-83
2022/11/11 00:04:40;;;;;;;0.00;0.00;;;;;;;9.20;89.16;101592.81;5033862;28;20537;-85
2022/11/11 00:07:05;;;;;;;0.00;0.00;;;;;;;9.27;89.01;101598.03;5033955;28;20221;-81
2022/11/11 00:09:30;;;;;;;0.00;0.00;;;;;;;9.19;89.65;101591.19;5033722;28;20705;-84
2022/11/11 00:11:56;;;;;;;0.00;0.00;;;;;;;9.17;89.49;101585.19;5033673;28;20203;-84
2022/11/11 00:14:21;;;;;;;1.07;0.83;;;;;;;9.29;88.93;101595.84;5033809;28;20179;-80
2022/11/11 00:25:07;;;;;;;0.57;0.40;;;;;;;9.68;85.82;101617.84;5033699;28;20191;-83
2022/11/11 00:27:33;;;;;;;0.70;0.70;;;;;;;9.73;85.42;101612.41;5032773;28;20168;-84
2022/11/11 00:29:59;;;;;;;0.47;0.27;;;;;;;9.75;84.91;101614.84;5033548;28;20207;-81
2022/11/11 00:32:29;;;;;;;0.10;0.00;;;;;;;9.71;85.01;101616.50;5033449;28;20195;-82
2022/11/11 00:37:42;;;;;;;0.07;0.07;;;;;;;9.64;85.10;101619.50;5033560;28;20187;-83
2022/11/11 00:40:09;;;;;;;0.87;0.73;;;;;;;9.59;85.28;101635.88;5033228;28;20186;-84
2022/11/11 00:42:34;;;;;;;2.20;1.17;;;;;;;9.58;85.29;101623.34;5033051;28;20187;-84
2022/11/11 00:44:59;;;;;;;0.10;0.10;;;;;;;9.63;85.42;101628.78;5033292;28;20184;-85
2022/11/11 00:52:56;;;;;;;2.73;0.80;;;;;;;9.63;84.69;101619.78;5033226;28;20194;-81
2022/11/11 00:55:21;;;;;;;1.30;0.87;;;;;;;9.66;84.36;101619.22;5033083;28;20176;-82
2022/11/11 00:57:47;;;;;;;0.00;0.00;;;;;;;9.57;84.41;101618.97;5033097;28;20184;-83
2022/11/11 01:00:12;;;;;;;0.10;0.10;;;;;;;9.58;84.46;101623.34;5033062;28;20191;-83
2022/11/11 01:02:38;;;;;;;0.30;0.27;;;;;;;9.56;84.62;101622.81;5032879;28;20183;-83
2022/11/11 01:05:03;;;;;;;0.27;0.27;;;;;;;9.60;84.25;101623.06;5032857;28;20208;-83
2022/11/11 01:07:29;;;;;;;0.00;0.00;;;;;;;9.58;84.39;101620.63;5032825;28;20168;-83
2022/11/11 01:09:54;;;;;;;0.00;0.00;;;;;;;9.55;84.23;101621.16;5031090;28;20219;-84
2022/11/11 01:12:19;;;;;;;0.30;0.30;;;;;;;9.53;84.46;101623.31;5032564;28;20187;-78
2022/11/11 01:14:44;;;;;;;0.40;0.40;;;;;;;9.52;84.18;101619.78;5032627;28;20176;-84
2022/11/11 01:17:10;;;;;;;9.43;1.43;;;;;;;9.47;84.19;101610.81;5032584;28;20211;-83
2022/11/11 01:19:35;;;;;;;0.37;0.37;;;;;;;9.49;84.23;101614.06;5032615;28;20270;-83
2022/11/11 01:22:01;;;;;;;0.20;0.20;;;;;;;9.46;84.28;101609.16;5032508;28;20581;-83
2022/11/11 01:24:26;;;;;;;2.10;0.50;;;;;;;9.46;84.34;101599.06;5032266;28;20175;-85
2022/11/11 01:26:51;;;;;;;1.40;0.40;;;;;;;9.56;83.99;101619.25;5032375;28;20187;-84
2022/11/11 01:29:17;;;;;;;1.60;0.67;;;;;;;9.54;83.60;101620.31;5032645;28;20180;-83
2022/11/11 01:31:43;;;;;;;0.47;0.40;;;;;;;9.60;83.27;101612.97;5032392;28;20294;-84
2022/11/11 01:34:08;;;;;;;0.33;0.20;;;;;;;9.60;82.93;101623.06;5032372;28;20267;-83
2022/11/11 01:36:33;;;;;;;0.10;0.10;;;;;;;9.58;83.10;101626.06;5032692;28;20230;-83
2022/11/11 01:38:59;;;;;;;0.00;0.00;;;;;;;9.56;82.88;101635.63;5032506;28;20190;-82
2022/11/11 01:41:32;;;;;;;0.00;0.00;;;;;;;9.54;82.93;101625.78;5032169;28;20180;-81
2022/11/11 01:44:03;;;;;;;0.00;0.00;;;;;;;9.50;82.85;101632.88;5032027;28;20257;-84
2022/11/11 01:46:36;;;;;;;0.00;0.00;;;;;;;9.60;82.84;101626.59;5032091;28;20611;-80
2022/11/11 01:49:19;;;;;;;0.53;0.53;;;;;;;9.57;82.31;101632.63;5032025;28;20253;-85
2022/11/11 01:51:47;;;;;;;0.27;0.27;;;;;;;9.49;82.72;101633.16;5031950;28;20298;-83
2022/11/11 01:54:30;;;;;;;0.00;0.00;;;;;;;9.34;83.24;101634.00;5031909;28;20682;-83
2022/11/11 01:57:00;;;;;;;0.00;0.00;;;;;;;9.35;83.92;101641.09;5031951;28;20230;-80
2022/11/11 01:59:27;;;;;;;0.00;0.00;;;;;;;9.44;83.14;101638.63;5030592;28;20677;-81
2022/11/11 02:01:52;;;;;;;0.00;0.00;;;;;;;9.51;82.71;101641.88;5031808;28;20209;-83
2022/11/11 02:07:07;;;;;;;0.87;0.77;;;;;;;9.52;82.04;101627.16;5031884;28;20210;-85
2022/11/11 02:09:34;;;;;;;0.00;0.00;;;;;;;9.41;82.33;101614.63;5031670;28;20172;-78
2022/11/11 02:14:52;;;;;;;0.40;0.40;;;;;;;9.48;81.85;101620.63;5031947;28;20199;-81
2022/11/11 02:17:18;;;;;;;1.90;0.87;;;;;;;9.46;82.12;101623.63;5031579;28;20548;-84
2022/11/11 02:19:53;;;;;;;6.20;0.87;;;;;;;9.48;81.86;101621.44;5031420;28;20164;-82
2022/11/11 02:22:24;;;;;;;9.70;0.57;;;;;;;9.46;81.82;101620.09;5031426;28;20179;-83
2022/11/11 02:24:52;;;;;;;0.10;0.10;;;;;;;9.57;81.24;101629.91;5031653;28;20170;-85
2022/11/11 02:27:20;;;;;;;0.40;0.40;;;;;;;9.50;81.27;101623.88;5031697;28;20191;-84
2022/11/11 02:29:49;;;;;;;0.00;0.00;;;;;;;9.48;81.66;101626.88;5031355;28;20188;-85
2022/11/11 02:32:15;;;;;;;0.00;0.00;;;;;;;9.42;81.83;101619.00;5031309;28;20665;-84
2022/11/11 02:34:40;;;;;;;0.17;0.17;;;;;;;9.47;81.90;101616.25;5030785;28;20176;-82
2022/11/11 02:37:07;;;;;;;0.70;0.70;;;;;;;9.65;80.82;101629.31;5031273;28;20175;-83
2022/11/11 02:39:36;;;;;;;0.50;0.47;;;;;;;9.71;80.03;101625.50;5031379;28;20172;-72
2022/11/11 02:42:08;;;;;;;0.00;0.00;;;;;;;9.63;80.32;101627.97;5031753;28;20183;-74
2022/11/11 02:44:34;;;;;;;4.77;0.87;;;;;;;9.50;80.74;101632.06;5033542;28;20175;-73
2022/11/11 02:46:59;;;;;;;0.00;0.00;;;;;;;9.54;80.92;101635.88;5032598;28;20168;-74
2022/11/11 02:49:25;;;;;;;0.00;0.00;;;;;;;9.70;80.12;101647.59;5031272;28;20180;-73
2022/11/11 02:51:50;;;;;;;0.30;0.30;;;;;;;9.60;80.11;101650.34;5030439;28;20294;-74
2022/11/11 02:54:15;;;;;;;0.20;0.20;;;;;;;9.57;80.29;101659.91;5030999;28;20658;-73
2022/11/11 02:59:24;;;;;;;0.00;0.00;;;;;;;9.52;80.02;101668.06;5030932;28;20654;-74
2022/11/11 03:01:49;;;;;;;0.00;0.00;;;;;;;9.51;80.39;101680.91;5030909;28;20176;-73
2022/11/11 03:04:15;;;;;;;0.00;0.00;;;;;;;9.45;80.30;101681.19;5030928;28;20183;-74
2022/11/11 03:06:40;;;;;;;0.00;0.00;;;;;;;9.22;80.98;101682.53;5030907;28;20544;-73
2022/11/11 03:09:05;;;;;;;0.00;0.00;;;;;;;9.27;81.50;101679.81;5030708;28;20176;-72
2022/11/11 03:11:31;;;;;;;0.00;0.00;;;;;;;9.26;81.17;101675.47;5030658;28;20199;-74
2022/11/11 03:13:57;;;;;;;0.00;0.00;;;;;;;9.19;81.59;101680.34;5030436;28;20182;-73
2022/11/11 03:19:07;;;;;;;0.00;0.00;;;;;;;9.27;81.75;101668.09;5030792;28;20190;-74
2022/11/11 03:21:33;;;;;;;0.00;0.00;;;;;;;9.16;81.78;101672.72;5030740;28;20222;-72
2022/11/11 03:23:58;;;;;;;0.00;0.00;;;;;;;9.17;81.78;101658.00;5030492;28;20176;-73
2022/11/11 03:26:23;;;;;;;0.40;0.30;;;;;;;9.43;81.09;101662.38;5030479;28;20179;-75
2022/11/11 03:28:49;;;;;;;0.30;0.30;;;;;;;9.48;80.38;101648.72;5030618;28;20175;-72
2022/11/11 03:31:15;;;;;;;0.00;0.00;;;;;;;9.53;79.73;101659.59;5030607;28;20265;-76
2022/11/11 03:33:40;;;;;;;0.00;0.00;;;;;;;9.38;80.21;101650.63;5030386;28;20180;-73
2022/11/11 03:36:06;;;;;;;0.00;0.00;;;;;;;9.45;79.86;101654.72;5030522;28;20176;-73
2022/11/11 03:38:31;;;;;;;0.00;0.00;;;;;;;9.41;80.54;101645.47;5030383;28;20176;-72
2022/11/11 03:40:57;;;;;;;0.00;0.00;;;;;;;9.21;80.74;101640.81;5030592;28;20526;-73
2022/11/11 03:43:26;;;;;;;0.00;0.00;;;;;;;9.28;80.94;101640.56;5030305;28;20182;-72
2022/11/11 03:45:53;;;;;;;0.37;0.13;;;;;;;9.20;81.46;101635.63;5030360;28;20250;-73
2022/11/11 03:48:19;;;;;;;0.00;0.00;;;;;;;9.30;81.01;101627.47;5030422;28;20282;-76
2022/11/11 03:50:48;;;;;;;0.00;0.00;;;;;;;9.28;80.89;101628.84;5030286;28;20727;-72
2022/11/11 03:53:13;;;;;;;0.00;0.00;;;;;;;9.18;81.13;101626.91;5030227;28;20187;-76
2022/11/11 03:55:40;;;;;;;0.00;0.00;;;;;;;9.18;80.82;101618.72;5030325;28;20187;-75
2022/11/11 03:58:05;;;;;;;0.53;0.43;;;;;;;9.17;81.00;101615.19;5030350;28;20180;-75
2022/11/11 04:00:32;;;;;;;0.67;0.67;;;;;;;9.28;81.00;101615.19;5030673;28;20186;-73
2022/11/11 04:11:47;;;;;;;0.00;0.00;;;;;;;9.67;78.91;101620.84;4953180;29;20205;-73
2022/11/11 04:16:57;;;;;;;0.03;0.03;;;;;;;9.80;77.77;101607.44;5034114;28;20298;-74
2022/11/11 04:22:07;;;;;;;0.43;0.27;;;;;;;9.80;77.93;101604.72;5033628;28;20653;-73
2022/11/11 04:27:18;;;;;;;0.10;0.10;;;;;;;9.89;77.31;101604.97;5033635;28;20207;-72
2022/11/11 04:29:45;;;;;;;0.50;0.50;;;;;;;9.98;77.34;101616.13;5033534;28;20190;-73
2022/11/11 04:35:06;;;;;;;0.00;0.00;;;;;;;9.98;76.81;101616.97;5033257;28;20234;-74
2022/11/11 04:37:34;;;;;;;0.83;0.83;;;;;;;10.02;76.92;101622.69;5033357;28;20174;-76
2022/11/11 04:42:43;;;;;;;0.40;0.40;;;;;;;9.98;76.97;101636.06;5033123;28;20694;-72
2022/11/11 04:48:02;;;;;;;0.80;0.60;;;;;;;9.93;77.29;101622.41;5033480;28;20179;-74
2022/11/11 04:50:30;;;;;;;0.20;0.20;;;;;;;9.94;77.11;101631.44;5033076;28;20198;-72
2022/11/11 04:52:56;;;;;;;0.50;0.50;;;;;;;9.97;77.25;101628.94;5032830;28;20175;-74
2022/11/11 04:58:07;;;;;;;1.47;0.53;;;;;;;9.87;77.51;101622.72;5033361;28;20654;-73
2022/11/11 05:00:33;;;;;;;0.00;0.00;;;;;;;9.88;77.38;101636.09;5033033;28;20234;-75
2022/11/11 05:08:54;;;;;;;0.00;0.00;;;;;;;9.78;78.18;101627.94;5033160;28;20186;-72
2022/11/11 05:11:35;;;;;;;0.00;0.00;;;;;;;9.72;78.44;101629.84;5033142;28;20208;-72
2022/11/11 05:22:31;;;;;;;0.27;0.27;;;;;;;9.58;79.11;101641.63;5032708;28;20179;-76
2022/11/11 05:27:41;;;;;;;0.00;0.00;;;;;;;9.48;79.49;101642.44;5032873;28;20187;-74
2022/11/11 05:30:08;;;;;;;0.00;0.00;;;;;;;9.46;79.42;101652.81;5032232;28;20179;-78
2022/11/11 05:32:34;;;;;;;0.30;0.27;;;;;;;9.49;79.87;101663.16;5032167;28;20262;-73
2022/11/11 05:34:59;;;;;;;0.20;0.20;;;;;;;9.51;79.46;101658.25;5032148;28;20295;-72
2022/11/11 05:37:24;;;;;;;0.00;0.00;;;;;;;9.46;79.59;101659.09;5032255;28;20536;-72
2022/11/11 05:39:50;;;;;;;0.00;0.00;;;;;;;9.45;79.51;101665.63;5032584;28;20190;-73
2022/11/11 05:42:15;;;;;;;0.00;0.00;;;;;;;9.33;79.89;101661.53;5032267;28;20230;-74
2022/11/11 05:44:40;;;;;;;0.00;0.00;;;;;;;9.34;80.00;101674.91;5031738;28;20702;-75
2022/11/11 05:47:06;;;;;;;0.00;0.00;;;;;;;9.34;80.05;101674.09;5032414;28;20184;-72
2022/11/11 05:49:31;;;;;;;0.00;0.00;;;;;;;9.33;80.25;101669.72;5032185;28;20183;-74
2022/11/11 05:51:57;;;;;;;0.00;0.00;;;;;;;9.33;80.51;101681.44;5031948;28;20215;-72
2022/11/11 05:54:22;;;;;;;0.00;0.00;;;;;;;9.27;80.55;101679.81;5031789;28;20267;-73
2022/11/11 05:56:48;;;;;;;0.00;0.00;;;;;;;9.25;80.93;101681.97;5031893;28;20595;-76
2022/11/11 05:59:13;;;;;;;0.00;0.00;;;;;;;9.19;81.26;101678.44;5031687;28;20176;-74
2022/11/11 06:01:39;;;;;;;0.00;0.00;;;;;;;9.06;81.63;101675.44;5031938;28;20180;-72
2022/11/11 06:04:05;;;;;;;0.00;0.00;;;;;;;8.92;82.38;101665.06;5031875;28;20184;-73
2022/11/11 06:06:31;;;;;;;0.00;0.00;;;;;;;8.91;82.71;101666.13;5031807;28;20191;-75
2022/11/11 06:08:57;;;;;;;0.00;0.00;;;;;;;8.76;83.11;101660.66;5029254;28;20214;-77
2022/11/11 06:11:22;;;;;;;0.00;0.00;;;;;;;8.58;83.97;101667.44;5046225;28;20658;-74
2022/11/11 06:13:48;;;;;;;6.60;6.40;;;;;;;8.52;84.17;101659.50;5031353;28;20776;-75
2022/11/11 06:16:14;;;;;;;0.00;0.00;;;;;;;8.41;84.79;101669.56;5031503;28;20191;-73
2022/11/11 06:18:39;;;;;;;0.00;0.00;;;;;;;8.23;85.68;101669.97;5031596;28;20182;-73
2022/11/11 06:21:05;;;;;;;0.00;0.00;;;;;;;8.31;86.41;101673.03;5031786;28;20263;-73
2022/11/11 06:23:31;;;;;;;0.00;0.00;;;;;;;8.39;85.80;101690.78;5031285;28;20172;-73
2022/11/11 06:26:11;;;;;;;0.20;0.20;;;;;;;8.29;86.45;101683.38;5030671;28;20250;-73
2022/11/11 06:28:47;;;;;;;0.00;0.00;;;;;;;8.26;86.77;101686.63;5031370;28;20218;-73
2022/11/11 06:31:24;;;;;;;0.00;0.00;;;;;;;8.35;86.90;101693.22;5031260;28;20238;-73
2022/11/11 06:33:49;;;;;;;0.00;0.00;;;;;;;8.40;86.54;101692.44;5031307;28;20195;-73
2022/11/11 06:36:17;;;;;;;0.00;0.00;;;;;;;8.32;86.39;101695.63;5031297;28;20214;-73
2022/11/11 06:38:43;;;;;;;0.00;0.00;;;;;;;8.22;86.98;101698.28;5031119;28;20179;-71
2022/11/11 06:41:11;;;;;;;0.00;0.00;;;;;;;8.27;86.71;101711.94;5031189;28;20171;-72
2022/11/11 06:43:37;;;;;;;0.00;0.00;;;;;;;8.14;87.22;101718.69;5031178;28;20215;-73
2022/11/11 06:46:03;;;;;;;0.00;0.00;;;;;;;8.00;88.11;101706.63;5031538;28;20195;-75
2022/11/11 06:48:28;;;;;;;0.00;0.00;;;;;;;8.00;88.48;101712.06;5031468;28;20482;-73
2022/11/11 06:51:00;;;;;;;0.43;0.20;;;;;;;7.93;89.22;101715.00;5030854;28;20705;-77
2022/11/11 06:53:27;;;;;;;1.50;1.40;;;;;;;7.87;89.63;101716.06;5030889;28;20168;-73
2022/11/11 06:55:53;;;;;;;0.00;0.00;;;;;;;7.80;89.60;101712.72;5030920;28;20639;-74
2022/11/11 06:58:19;;;;;;;0.00;0.00;;;;;;;7.62;89.93;101716.69;5031262;28;20190;-74
2022/11/11 07:00:46;;;;;;;0.00;0.00;;;;;;;7.59;91.64;101708.22;5030965;28;20176;-72
2022/11/11 07:03:17;;;;;;;0.00;0.00;;;;;;;7.51;91.44;101712.25;5030654;28;20175;-74
2022/11/11 07:05:42;;;;;;;0.00;0.00;;;;;;;7.63;92.04;101712.88;5031022;28;20179;-73
2022/11/11 07:08:11;;;;;;;0.00;0.00;;;;;;;7.49;92.23;101719.03;5030914;28;20175;-75
2022/11/11 07:10:38;;;;;;;0.00;0.00;;;;;;;7.48;93.13;101726.34;5012939;28;20278;-72
2022/11/11 07:13:05;;;;;;;0.00;0.00;;;;;;;7.59;92.93;101735.44;5030433;28;20183;-72
2022/11/11 07:15:31;;;;;;;0.00;0.00;;;;;;;7.62;92.26;101726.75;5030838;28;20184;-73
2022/11/11 07:17:56;;;;;;;0.00;0.00;;;;;;;7.64;92.48;101719.13;5030819;28;20326;-73
2022/11/11 07:20:21;;;;;;;0.00;0.00;;;;;;;7.71;92.13;101719.75;5030636;28;20735;-74
2022/11/11 07:22:47;;;;;;;0.00;0.00;;;;;;;7.73;92.13;101720.31;5030634;28;20172;-73
2022/11/11 07:25:12;;;;;;;0.00;0.00;;;;;;;7.82;91.96;101712.50;5030943;28;20737;-72
2022/11/11 07:27:39;;;;;;;0.00;0.00;;;;;;;7.94;91.48;101713.91;5030581;28;20176;-72
2022/11/11 07:30:05;;;;;;;0.73;0.20;;;;;;;8.03;90.93;101714.25;5030564;28;20168;-72
2022/11/11 07:32:31;;;;;;;0.13;0.13;;;;;;;8.22;90.38;101723.59;5030705;28;20211;-72
2022/11/11 07:34:56;;;;;;;1.17;1.17;;;;;;;8.49;88.64;101709.88;5030186;28;20655;-73
2022/11/11 07:37:21;;;;;;;0.07;0.07;;;;;;;8.58;87.84;101719.19;5031625;28;20210;-73
2022/11/11 07:39:46;;;;;;;0.00;0.00;;;;;;;8.65;87.19;101721.66;5034244;28;20184;-73
2022/11/11 07:42:12;;;;;;;0.00;0.00;;;;;;;8.67;86.63;101722.19;5049716;28;20221;-73
2022/11/11 07:44:37;;;;;;;0.00;0.00;;;;;;;8.64;86.44;101730.91;5033907;28;20250;-73
2022/11/11 07:47:02;;;;;;;0.00;0.00;;;;;;;8.83;85.56;101742.19;5034413;28;20203;-78
2022/11/11 07:49:28;;;;;;;0.00;0.00;;;;;;;8.85;85.99;101749.00;5034388;28;20230;-73
2022/11/11 07:51:53;;;;;;;0.23;0.23;;;;;;;9.04;84.79;101759.41;5034107;28;20214;-76
2022/11/11 07:54:18;;;;;;;0.00;0.00;;;;;;;9.11;84.12;101754.50;5032513;28;20594;-76
2022/11/11 07:56:44;;;;;;;10.27;1.37;;;;;;;9.18;83.95;101750.44;5031141;28;20194;-73
2022/11/11 07:59:09;;;;;;;0.00;0.00;;;;;;;9.26;83.49;101754.53;5033861;28;20663;-78
2022/11/11 08:01:34;;;;;;;0.70;0.67;;;;;;;9.35;82.67;101752.91;5034089;28;20218;-73
2022/11/11 08:03:59;;;;;;;0.00;0.00;;;;;;;9.42;82.39;101750.75;5033857;28;20171;-80
2022/11/11 08:06:25;;;;;;;0.00;0.00;;;;;;;9.40;82.21;101735.72;5034045;28;20222;-77
2022/11/11 08:08:50;;;;;;;0.30;0.20;;;;;;;9.50;82.10;101744.72;5033825;28;20186;-78
2022/11/11 08:11:16;;;;;;;0.63;0.63;;;;;;;9.56;81.63;101736.56;5033729;28;20199;-73
2022/11/11 08:13:43;;;;;;;0.97;0.70;;;;;;;9.63;81.36;101745.28;5015693;28;20233;-72
2022/11/11 08:16:13;;;;;;;4.13;0.67;;;;;;;9.73;81.12;101745.28;5034189;28;20175;-74
2022/11/11 08:18:39;;;;;;;1.30;0.60;;;;;;;9.79;80.62;101741.47;5033732;28;20774;-73
2022/11/11 08:21:06;;;;;;;0.67;0.47;;;;;;;9.80;80.66;101746.63;5033592;28;20184;-75
2022/11/11 08:23:32;;;;;;;0.43;0.43;;;;;;;9.88;80.38;101749.94;5033571;28;20184;-73
2022/11/11 08:26:02;;;;;;;0.20;0.20;;;;;;;9.96;79.87;101752.91;5033739;28;20221;-73
2022/11/11 08:28:29;;;;;;;6.93;0.87;;;;;;;10.07;79.94;101756.44;5033309;28;20187;-72
2022/11/11 08:30:58;;;;;;;0.60;0.60;;;;;;;10.13;79.92;101756.19;5033128;28;20361;-79
2022/11/11 08:33:24;;;;;;;0.27;0.13;;;;;;;10.22;79.02;101752.91;5032263;28;20278;-73
2022/11/11 08:35:53;;;;;;;1.33;0.63;;;;;;;10.28;78.83;101760.00;5032382;28;20184;-77
2022/11/11 08:38:19;;;;;;;1.07;0.53;;;;;;;10.35;78.73;101766.78;5031990;28;20188;-76
2022/11/11 08:40:44;;;;;;;3.13;0.50;;;;;;;10.40;78.83;101757.75;5031814;28;20180;-75
2022/11/11 08:43:09;;;;;;;0.47;0.30;;;;;;;10.43;78.06;101766.25;5031778;28;20604;-76
2022/11/11 08:45:35;;;;;;;0.60;0.57;;;;;;;10.47;78.47;101763.75;5031880;28;20201;-76
2022/11/11 08:48:00;;;;;;;6.70;0.87;;;;;;;10.52;77.67;101758.28;5031731;28;20180;-77
2022/11/11 08:50:25;;;;;;;0.50;0.40;;;;;;;10.55;77.60;101768.63;5030701;28;20218;-76
2022/11/11 08:52:54;;;;;;;0.40;0.37;;;;;;;10.57;77.53;101758.28;5031446;28;20223;-75
2022/11/11 08:55:22;;;;;;;0.03;0.03;;;;;;;10.59;77.72;101755.25;5031591;28;20220;-76
2022/11/11 08:57:47;;;;;;;0.03;0.03;;;;;;;10.65;77.23;101751.38;5031944;28;20214;-75
2022/11/11 09:00:13;;;;;;;0.20;0.20;;;;;;;10.66;77.79;101762.03;5031677;28;20522;-77
2022/11/11 09:02:39;;;;;;;0.10;0.10;;;;;;;10.72;77.55;101750.00;5031759;28;20187;-76
2022/11/11 09:05:05;;;;;;;0.10;0.10;;;;;;;10.79;76.80;101755.16;5032307;28;20638;-81
2022/11/11 09:07:31;;;;;;;0.47;0.30;;;;;;;10.84;76.25;101749.66;5032639;28;20172;-86
2022/11/11 09:09:56;;;;;;;2.90;0.70;;;;;;;10.87;76.43;101757.31;5032740;28;20211;-88
2022/11/11 09:12:22;;;;;;;0.00;0.00;;;;;;;10.92;76.35;101759.19;5034557;28;20238;-88
2022/11/11 09:14:48;;;;;;;3.40;0.37;;;;;;;10.97;75.74;101750.97;5032824;28;20183;-85
2022/11/11 09:17:14;;;;;;;0.10;0.10;;;;;;;10.99;75.81;101749.59;5032800;28;20655;-86
2022/11/11 09:19:39;;;;;;;0.23;0.23;;;;;;;11.05;75.55;101763.25;5033058;28;20310;-88
2022/11/11 09:22:05;;;;;;;4.93;4.73;;;;;;;11.10;75.29;101765.94;5032678;28;20514;-85
2022/11/11 09:24:31;;;;;;;0.50;0.50;;;;;;;11.19;75.54;101776.00;5032558;28;20214;-86
2022/11/11 09:26:56;;;;;;;0.00;0.00;;;;;;;11.29;75.92;101791.56;5032779;28;20503;-86
2022/11/11 09:29:22;;;;;;;0.47;0.23;;;;;;;11.32;74.98;101788.25;5032555;28;20184;-85
2022/11/11 09:31:47;;;;;;;0.00;0.00;;;;;;;11.36;74.87;101797.50;5032582;28;20291;-87
2022/11/11 09:34:13;;;;;;;0.20;0.20;;;;;;;11.42;73.97;101799.09;5032270;28;20178;-84
2022/11/11 09:36:38;;;;;;;0.10;0.10;;;;;;;11.52;74.26;101800.97;5032554;28;20179;-86
2022/11/11 09:39:04;;;;;;;0.83;0.83;;;;;;;11.58;73.94;101805.31;5032425;28;20172;-86
2022/11/11 09:41:48;;;;;;;0.03;0.03;;;;;;;11.62;73.53;101811.84;5030580;28;20190;-88
2022/11/11 09:44:39;;;;;;;1.83;0.40;;;;;;;11.60;73.96;101812.16;5023346;28;20554;-84
2022/11/11 09:47:17;;;;;;;1.20;1.13;;;;;;;11.73;74.00;101818.09;5022420;28;20208;-82
2022/11/11 09:50:10;;;;;;;0.60;0.40;;;;;;;11.81;74.57;101820.22;5031697;28;20182;-85
2022/11/11 09:53:09;;;;;;;1.37;0.40;;;;;;;11.81;74.48;101821.03;5023276;28;20203;-83
2022/11/11 09:55:43;;;;;;;2.63;1.30;;;;;;;11.84;74.90;101816.91;5031930;28;20202;-87
2022/11/11 09:58:23;;;;;;;0.60;0.53;;;;;;;11.83;74.72;101810.63;5031800;28;20164;-87
2022/11/11 10:00:58;;;;;;;0.53;0.53;;;;;;;11.85;74.79;101824.03;5031360;28;20503;-85
2022/11/11 10:03:25;;;;;;;0.70;0.70;;;;;;;11.85;74.43;101824.84;5031122;28;20193;-80
2022/11/11 10:05:54;;;;;;;0.50;0.50;;;;;;;11.84;75.01;101831.41;5030128;28;20179;-78
2022/11/11 10:08:28;;;;;;;0.63;0.53;;;;;;;11.93;75.23;101830.81;5030748;28;20176;-73
2022/11/11 10:10:58;;;;;;;0.27;0.27;;;;;;;11.92;75.25;101824.53;5029511;28;20204;-84
2022/11/11 10:13:31;;;;;;;0.00;0.00;;;;;;;12.00;75.40;101834.84;5031297;28;20180;-73
2022/11/11 10:16:04;;;;;;;0.83;0.33;;;;;;;12.05;74.97;101834.00;5031482;28;20185;-73
2022/11/11 10:18:49;;;;;;;0.20;0.13;;;;;;;12.03;75.26;101847.19;5031514;28;20175;-74
2022/11/11 10:21:21;;;;;;;6.03;1.43;;;;;;;12.10;74.89;101845.72;5029136;28;20171;-73
2022/11/11 10:23:48;;;;;;;0.30;0.30;;;;;;;12.21;75.20;101841.00;5030897;28;20179;-74
2022/11/11 10:26:43;;;;;;;1.60;0.90;;;;;;;12.25;74.86;101842.03;5031290;28;20246;-74
2022/11/11 10:29:16;;;;;;;0.00;0.00;;;;;;;12.39;75.25;101853.16;5028122;28;20274;-74
2022/11/11 10:31:43;;;;;;;7.63;0.30;;;;;;;12.54;74.88;101857.66;5023782;28;20195;-74
2022/11/11 10:34:09;;;;;;;0.30;0.30;;;;;;;12.63;74.23;101856.75;5031139;28;20194;-73
2022/11/11 10:36:45;;;;;;;0.00;0.00;;;;;;;12.69;73.96;101861.06;5030983;28;20179;-74
2022/11/11 10:39:16;;;;;;;0.00;0.00;;;;;;;12.74;72.96;101849.22;5030864;28;20218;-74
2022/11/11 10:41:47;;;;;;;0.07;0.07;;;;;;;12.78;73.03;101853.03;5030964;28;20167;-74
2022/11/11 10:44:26;;;;;;;0.03;0.03;;;;;;;12.85;73.38;101863.63;5030504;28;20258;-74
2022/11/11 10:46:55;;;;;;;0.00;0.00;;;;;;;12.91;72.21;101857.00;5030781;28;20566;-74
2022/11/11 10:49:24;;;;;;;0.00;0.00;;;;;;;13.00;72.85;101857.97;5030647;28;20191;-73
2022/11/11 10:52:14;;;;;;;0.43;0.43;;;;;;;12.99;72.16;101861.81;5030639;28;20207;-74
2022/11/11 10:54:46;;;;;;;5.43;0.30;;;;;;;13.05;72.46;101860.66;5030463;28;20168;-73
2022/11/11 10:57:26;;;;;;;0.03;0.03;;;;;;;13.10;72.18;101855.91;5030768;28;20396;-73
2022/11/11 11:00:09;;;;;;;0.00;0.00;;;;;;;13.21;72.72;101855.81;5031015;28;20171;-74
2022/11/11 11:03:11;;;;;;;0.00;0.00;;;;;;;13.30;71.94;101857.59;5030382;28;20194;-77
2022/11/11 11:06:01;;;;;;;0.30;0.30;;;;;;;13.28;71.04;101853.53;5030486;28;20215;-74
2022/11/11 11:08:30;;;;;;;0.30;0.30;;;;;;;13.31;71.02;101844.72;5030994;28;20168;-74
2022/11/11 11:11:03;;;;;;;2.13;0.30;;;;;;;13.29;70.15;101838.69;5030813;28;20199;-73
2022/11/11 11:13:42;;;;;;;0.10;0.10;;;;;;;13.34;70.17;101831.22;5029897;28;20160;-73
2022/11/11 11:16:22;;;;;;;0.53;0.50;;;;;;;13.45;70.64;101837.34;5030456;28;20167;-74
2022/11/11 11:19:16;;;;;;;0.10;0.10;;;;;;;13.48;70.18;101835.97;5030451;28;20175;-74
2022/11/11 11:21:48;;;;;;;0.60;0.60;;;;;;;13.51;69.40;101838.94;5030366;28;20178;-74
2022/11/11 11:24:22;;;;;;;0.10;0.10;;;;;;;13.52;68.92;101837.81;5030092;28;20558;-73
2022/11/11 11:26:51;;;;;;;0.77;0.37;;;;;;;13.62;69.42;101837.69;5030306;28;20175;-73
2022/11/11 11:29:25;;;;;;;0.20;0.20;;;;;;;13.60;68.54;101826.19;5030305;28;20168;-73
2022/11/11 11:31:51;;;;;;;2.70;0.90;;;;;;;13.58;69.05;101831.13;5030220;28;20331;-73
2022/11/11 11:34:16;;;;;;;0.10;0.10;;;;;;;13.61;68.20;101819.56;5030084;28;20272;-73
2022/11/11 11:36:42;;;;;;;0.10;0.10;;;;;;;13.74;67.97;101823.47;5030237;28;20278;-73
2022/11/11 11:39:07;;;;;;;0.00;0.00;;;;;;;13.82;67.53;101824.72;5030023;28;20594;-75
2022/11/11 11:41:39;;;;;;;0.30;0.20;;;;;;;13.93;67.76;101829.75;5029941;28;20187;-73
2022/11/11 11:44:24;;;;;;;0.60;0.60;;;;;;;13.97;66.17;101824.47;5029945;28;20172;-74
2022/11/11 11:46:54;;;;;;;3.50;0.30;;;;;;;13.99;65.75;101819.50;5030064;28;20246;-73
2022/11/11 11:49:41;;;;;;;0.10;0.10;;;;;;;13.98;65.18;101829.69;5030080;28;20666;-73
2022/11/11 11:52:17;;;;;;;0.00;0.00;;;;;;;14.04;64.91;101827.69;5030064;28;20254;-73
2022/11/11 11:54:56;;;;;;;0.00;0.00;;;;;;;14.10;64.38;101834.69;5030173;28;20187;-74
2022/11/11 11:57:37;;;;;;;0.00;0.00;;;;;;;14.22;65.14;101829.56;5012290;28;20176;-74
2022/11/11 12:00:12;;;;;;;0.77;0.77;;;;;;;14.37;65.64;101833.16;5029841;28;20678;-75
2022/11/11 12:02:56;;;;;;;0.43;0.20;;;;;;;14.40;64.23;101829.78;5029753;28;20182;-73
2022/11/11 12:05:39;;;;;;;1.27;0.50;;;;;;;14.28;62.58;101824.75;5029869;28;20222;-73
2022/11/11 12:08:12;;;;;;;0.63;0.37;;;;;;;14.28;63.85;101825.56;5030135;28;20164;-74
2022/11/11 12:11:04;;;;;;;0.17;0.17;;;;;;;14.30;64.47;101831.59;5012194;28;20223;-73
2022/11/11 12:13:44;;;;;;;0.43;0.30;;;;;;;14.32;62.86;101839.56;5012250;28;20233;-73
2022/11/11 12:16:38;;;;;;;0.00;0.00;;;;;;;14.24;62.96;101832.00;5030229;28;20696;-74
2022/11/11 12:19:35;;;;;;;0.10;0.10;;;;;;;14.24;62.94;101835.56;5029794;28;20271;-75
2022/11/11 12:22:38;;;;;;;0.57;0.57;;;;;;;14.23;64.08;101830.38;5026525;28;20192;-75
2022/11/11 12:25:21;;;;;;;0.00;0.00;;;;;;;14.30;63.46;101839.84;5031565;28;20250;-75
2022/11/11 12:28:04;;;;;;;12.47;0.30;;;;;;;14.37;62.79;101844.16;5033126;28;20236;-74
2022/11/11 12:30:32;;;;;;;0.00;0.00;;;;;;;14.46;63.35;101836.84;5033215;28;20317;-82
2022/11/11 12:33:22;;;;;;;0.00;0.00;;;;;;;14.45;62.04;101835.22;5033157;28;20172;-85
2022/11/11 12:35:59;;;;;;;1.07;1.07;;;;;;;14.41;61.94;101832.22;5033592;28;20184;-85
2022/11/11 12:38:39;;;;;;;0.20;0.20;;;;;;;14.39;62.52;101833.66;5033346;28;20254;-83
2022/11/11 12:41:23;;;;;;;0.50;0.50;;;;;;;14.29;62.31;101832.72;5033167;28;20237;-83
2022/11/11 12:43:53;;;;;;;0.00;0.00;;;;;;;14.29;62.77;101832.72;5032637;28;20180;-83
2022/11/11 12:46:36;;;;;;;0.00;0.00;;;;;;;14.29;62.27;101843.69;5033041;28;20540;-83
2022/11/11 12:49:18;;;;;;;0.13;0.13;;;;;;;14.41;62.87;101845.16;5033258;28;20171;-81
2022/11/11 12:51:55;;;;;;;0.30;0.30;;;;;;;14.41;62.84;101848.72;5032773;28;20195;-82
2022/11/11 12:54:33;;;;;;;0.10;0.10;;;;;;;14.40;63.61;101833.34;5032403;28;20176;-79